createdAt,value
2023-03-25T00:03:04.453Z,2.45
2023-03-25T00:08:06.399Z,2.30
2023-03-25T00:13:08.420Z,1.98
2023-03-25T00:18:09.992Z,2.33
2023-03-25T00:23:14.424Z,2.53
2023-03-25T00:28:17.081Z,2.20
2023-03-25T00:33:19.280Z,2.38
2023-03-25T00:38:20.900Z,2.13
2023-03-25T00:43:22.524Z,2.45
2023-03-25T00:48:24.184Z,2.55
2023-03-25T00:53:26.120Z,2.25
2023-03-25T00:58:27.843Z,2.03
2023-03-25T01:03:29.542Z,3.38
2023-03-25T01:08:32.105Z,2.40
2023-03-25T01:13:34.218Z,2.00
2023-03-25T01:18:37.944Z,2.10
2023-03-25T01:23:39.759Z,2.40
2023-03-25T01:28:42.699Z,2.60
2023-03-25T01:33:44.324Z,2.90
2023-03-25T01:38:48.083Z,2.67
2023-03-25T01:44:08.688Z,2.22
2023-03-25T01:49:17.167Z,2.67
2023-03-25T01:54:19.463Z,2.50
2023-03-25T01:59:27.180Z,2.65
2023-03-25T02:05:04.944Z,2.45
2023-03-25T02:10:08.745Z,2.60
2023-03-25T02:15:11.238Z,2.55
2023-03-25T02:20:18.780Z,2.55
2023-03-25T02:25:54.962Z,2.22
2023-03-25T02:31:05.711Z,2.38
2023-03-25T02:36:41.517Z,2.38
2023-03-25T02:41:53.374Z,1.83
2023-03-25T02:47:00.337Z,2.20
2023-03-25T02:52:09.375Z,1.77
2023-03-25T02:57:14.184Z,2.10
2023-03-25T03:02:17.510Z,2.17
2023-03-25T03:07:39.809Z,2.10
2023-03-25T03:12:56.585Z,2.47
2023-03-25T03:18:27.220Z,2.40
2023-03-25T03:23:37.099Z,2.17
2023-03-25T03:28:50.488Z,1.90
2023-03-25T03:34:05.678Z,1.65
2023-03-25T03:39:38.163Z,1.48
2023-03-25T03:44:42.904Z,2.05
2023-03-25T03:49:53.561Z,1.52
2023-03-25T03:55:00.816Z,2.30
2023-03-25T04:00:10.079Z,1.80
2023-03-25T04:05:17.795Z,1.33
2023-03-25T04:10:29.863Z,1.40
2023-03-25T04:15:31.747Z,1.20
2023-03-25T04:20:36.589Z,1.38
2023-03-25T04:25:38.415Z,1.27
2023-03-25T04:30:40.868Z,1.23
2023-03-25T04:35:42.554Z,1.30
2023-03-25T04:40:46.771Z,1.05
2023-03-25T04:45:55.066Z,1.38
2023-03-25T04:50:59.180Z,1.00
2023-03-25T04:56:00.775Z,1.15
2023-03-25T05:01:06.251Z,1.13
2023-03-25T05:06:08.099Z,1.20
2023-03-25T05:11:09.781Z,0.90
2023-03-25T05:16:11.385Z,0.85
2023-03-25T05:21:13.197Z,0.88
2023-03-25T05:26:14.875Z,1.00
2023-03-25T05:31:16.462Z,0.88
2023-03-25T05:36:18.347Z,0.73
2023-03-25T05:41:21.378Z,0.80
2023-03-25T05:46:23.127Z,0.68
2023-03-25T05:51:26.406Z,0.77
2023-03-25T05:56:28.140Z,0.85
2023-03-25T06:01:33.379Z,1.10
2023-03-25T06:06:36.100Z,0.90
2023-03-25T06:11:46.779Z,0.80
2023-03-25T06:16:50.101Z,0.80
2023-03-25T06:21:52.217Z,0.90
2023-03-25T06:26:54.028Z,0.90
2023-03-25T06:31:55.859Z,0.95
2023-03-25T06:36:57.472Z,1.13
2023-03-25T06:42:00.305Z,0.93
2023-03-25T06:47:11.508Z,1.02
2023-03-25T06:52:18.618Z,1.23
2023-03-25T06:57:20.288Z,1.08
2023-03-25T07:02:21.883Z,1.30
2023-03-25T07:07:23.539Z,1.40
2023-03-25T07:12:25.337Z,1.30
2023-03-25T07:17:27.354Z,0.88
2023-03-25T07:22:29.012Z,1.10
2023-03-25T07:27:30.942Z,1.10
2023-03-25T07:32:39.096Z,1.42
2023-03-25T07:37:40.812Z,0.88
2023-03-25T07:42:43.831Z,1.27
2023-03-25T07:48:13.689Z,1.40
2023-03-25T07:53:15.554Z,1.20
2023-03-25T07:58:18.491Z,1.00
2023-03-25T08:03:21.283Z,1.23
2023-03-25T08:08:23.115Z,1.10
2023-03-25T08:13:25.853Z,1.38
2023-03-25T08:18:27.646Z,1.20
2023-03-25T08:23:29.315Z,1.00
2023-03-25T08:28:31.422Z,0.90
2023-03-25T08:33:41.060Z,1.33
2023-03-25T08:38:42.874Z,0.80
2023-03-25T08:43:45.202Z,0.90
2023-03-25T08:48:50.107Z,0.73
2023-03-25T08:53:52.011Z,1.50
2023-03-25T08:58:53.655Z,0.85
2023-03-25T09:03:57.048Z,0.70
2023-03-25T09:08:58.718Z,1.25
2023-03-25T09:14:05.013Z,1.15
2023-03-25T09:19:06.976Z,0.85
2023-03-25T09:24:09.841Z,1.30
2023-03-25T09:29:11.441Z,0.90
2023-03-25T09:34:14.626Z,1.25
2023-03-25T09:39:17.648Z,1.00
2023-03-25T09:44:24.832Z,1.17
2023-03-25T09:49:39.633Z,1.02
2023-03-25T09:54:48.547Z,0.90
2023-03-25T09:59:51.873Z,1.10
2023-03-25T10:05:04.272Z,1.08
2023-03-25T10:10:44.322Z,1.15
2023-03-25T10:16:03.896Z,1.50
2023-03-25T10:21:19.219Z,1.40
2023-03-25T10:26:31.873Z,1.08
2023-03-25T10:31:39.534Z,0.73
2023-03-25T10:36:49.311Z,1.10
2023-03-25T10:42:01.852Z,0.65
2023-03-25T10:47:12.585Z,0.93
2023-03-25T10:52:15.996Z,1.00
2023-03-25T10:57:26.116Z,1.00
2023-03-25T11:02:31.369Z,0.98
2023-03-25T11:07:36.257Z,0.85
2023-03-25T11:12:43.153Z,0.80
2023-03-25T11:17:47.386Z,0.88
2023-03-25T11:22:53.400Z,0.80
2023-03-25T11:28:02.121Z,0.82
2023-03-25T11:33:14.434Z,0.80
2023-03-25T11:38:20.170Z,0.70
2023-03-25T11:43:24.943Z,0.68
2023-03-25T11:48:35.066Z,0.45
2023-03-25T11:53:36.734Z,0.80
2023-03-25T11:58:40.676Z,0.73
2023-03-25T12:03:42.458Z,0.65
2023-03-25T12:08:50.478Z,0.75
2023-03-25T12:14:12.393Z,0.63
2023-03-25T12:19:19.633Z,0.60
2023-03-25T12:24:56.739Z,0.90
2023-03-25T12:30:38.166Z,0.70
2023-03-25T12:35:47.310Z,0.82
2023-03-25T12:41:12.799Z,0.63
2023-03-25T12:47:11.624Z,0.80
2023-03-25T12:52:43.127Z,0.60
2023-03-25T12:58:01.585Z,0.40
2023-03-25T13:03:21.594Z,0.60
2023-03-25T13:08:32.372Z,0.88
2023-03-25T13:13:37.103Z,0.70
2023-03-25T13:18:46.139Z,0.80
2023-03-25T13:23:54.638Z,0.85
2023-03-25T13:29:12.149Z,1.17
2023-03-25T13:34:28.481Z,0.90
2023-03-25T13:39:37.641Z,1.05
2023-03-25T13:44:43.207Z,0.93
2023-03-25T13:49:53.114Z,0.82
2023-03-25T13:55:01.426Z,0.90
2023-03-25T14:00:12.418Z,1.23
2023-03-25T14:05:32.455Z,1.00
2023-03-25T14:10:53.814Z,1.10
2023-03-25T14:16:27.471Z,1.17
2023-03-25T14:21:56.008Z,1.45
2023-03-25T14:27:19.776Z,1.40
2023-03-25T14:32:21.331Z,1.25
2023-03-25T14:37:26.121Z,0.82
2023-03-25T14:42:29.443Z,0.60
2023-03-25T14:47:34.022Z,0.80
2023-03-25T14:52:49.459Z,0.90
2023-03-25T14:58:00.614Z,0.63
2023-03-25T15:03:12.810Z,0.95
2023-03-25T15:08:17.740Z,1.10
2023-03-25T15:13:26.026Z,1.05
2023-03-25T15:18:37.203Z,0.70
2023-03-25T15:23:49.678Z,0.80
2023-03-25T15:29:28.315Z,0.70
2023-03-25T15:34:55.385Z,0.50
2023-03-25T15:40:12.945Z,0.70
2023-03-25T15:45:29.524Z,0.88
2023-03-25T15:50:37.490Z,1.13
2023-03-25T15:55:39.122Z,0.80
2023-03-25T16:00:47.276Z,0.90
2023-03-25T16:05:55.518Z,1.08
2023-03-25T16:10:57.293Z,1.00
2023-03-25T16:15:59.126Z,0.73
2023-03-25T16:21:03.074Z,1.10
2023-03-25T16:26:05.553Z,0.80
2023-03-25T16:31:29.115Z,1.23
2023-03-25T16:36:30.868Z,0.98
2023-03-25T16:41:32.448Z,1.10
2023-03-25T16:46:34.208Z,1.33
2023-03-25T16:51:39.067Z,0.90
2023-03-25T16:56:43.287Z,1.10
2023-03-25T17:01:55.481Z,1.23
2023-03-25T17:07:00.940Z,1.05
2023-03-25T17:12:08.023Z,1.70
2023-03-25T17:17:23.038Z,1.40
2023-03-25T17:22:35.254Z,1.00
2023-03-25T17:27:38.758Z,1.17
2023-03-25T17:32:44.812Z,1.10
2023-03-25T17:37:50.625Z,1.73
2023-03-25T17:42:53.429Z,1.52
2023-03-25T17:47:55.239Z,1.55
2023-03-25T17:52:57.520Z,1.40
2023-03-25T17:57:59.139Z,1.48
2023-03-25T18:03:00.758Z,1.55
2023-03-25T18:08:03.852Z,1.10
2023-03-25T18:13:05.495Z,1.50
2023-03-25T18:18:17.897Z,1.52
2023-03-25T18:23:19.506Z,1.35
2023-03-25T18:28:21.779Z,1.45
2023-03-25T18:33:23.909Z,1.50
2023-03-25T18:38:27.565Z,1.73
2023-03-25T18:43:29.184Z,1.10
2023-03-25T18:48:30.850Z,1.50
2023-03-25T18:53:32.512Z,1.10
2023-03-25T18:58:36.492Z,1.70
2023-03-25T19:03:41.298Z,1.75
2023-03-25T19:08:44.445Z,2.03
2023-03-25T19:13:46.067Z,2.00
2023-03-25T19:18:47.944Z,1.08
2023-03-25T19:23:49.863Z,1.17
2023-03-25T19:28:51.723Z,1.33
2023-03-25T19:33:53.337Z,1.35
2023-03-25T19:38:58.799Z,1.40
2023-03-25T19:44:00.569Z,1.25
2023-03-25T19:49:02.199Z,1.65
2023-03-25T19:54:04.066Z,1.00
2023-03-25T19:59:05.700Z,1.02
2023-03-25T20:04:07.355Z,0.77
2023-03-25T20:09:10.643Z,1.38
2023-03-25T20:14:12.274Z,1.13
2023-03-25T20:19:13.879Z,1.00
2023-03-25T20:24:15.831Z,1.48
2023-03-25T20:29:19.593Z,0.93
2023-03-25T20:34:21.301Z,0.95
2023-03-25T20:39:24.685Z,1.00
2023-03-25T20:44:26.348Z,1.50
2023-03-25T20:49:28.006Z,1.00
2023-03-25T20:54:29.718Z,1.00
2023-03-25T20:59:31.871Z,1.00
2023-03-25T21:04:33.471Z,1.25
2023-03-25T21:09:36.044Z,1.40
2023-03-25T21:14:38.008Z,2.30
2023-03-25T21:19:40.168Z,1.48
2023-03-25T21:24:41.822Z,1.95
2023-03-25T21:29:43.971Z,1.88
2023-03-25T21:34:45.563Z,1.75
2023-03-25T21:39:48.029Z,1.70
2023-03-25T21:44:49.626Z,2.22
2023-03-25T21:49:51.288Z,1.73
2023-03-25T21:54:54.934Z,1.52
2023-03-25T21:59:57.098Z,1.98
2023-03-25T22:04:58.682Z,1.77
2023-03-25T22:10:00.339Z,1.40
2023-03-25T22:15:02.273Z,1.50
2023-03-25T22:20:05.518Z,1.75
2023-03-25T22:25:08.811Z,1.60
2023-03-25T22:30:11.284Z,1.42
2023-03-25T22:35:14.232Z,1.55
2023-03-25T22:40:15.837Z,1.27
2023-03-25T22:45:17.879Z,0.98
2023-03-25T22:50:19.785Z,1.33
2023-03-25T22:55:21.403Z,1.00
2023-03-25T23:00:25.908Z,1.38
2023-03-25T23:05:27.511Z,1.10
2023-03-25T23:10:29.128Z,1.27
2023-03-25T23:15:30.713Z,1.15
2023-03-25T23:20:32.387Z,1.40
2023-03-25T23:25:33.992Z,1.42
2023-03-25T23:30:36.048Z,1.50
2023-03-25T23:35:37.668Z,1.45
2023-03-25T23:40:39.289Z,1.40
2023-03-25T23:45:42.022Z,1.25
2023-03-25T23:50:47.351Z,1.77
2023-03-25T23:55:55.586Z,1.30
